Flight Track Log - Related Links

Times and Time Zones

All times are in EDT time to prevent confusion due to time zone crossing. See the DAL1981 flight status page for this flight to view local times or setup timezone preferences in your user account.

Time Position Orientation Groundspeed Altitude Reporting Facility
EDT Latitude Longitude Course Direction KTS MPH feet Rate Location/Type
Fri 06:16:12 AM 42.7672 -73.8061 180° South 170 196 1,200  Level Boston Center
Fri 06:16:55 AM 42.7961 -73.8350 324° Northwest 193 222 2,100 2,000 Climbing Boston Center
Fri 06:17:39 AM 42.8350 -73.8869 316° Northwest 257 296 4,100 2,942 Climbing Boston Center
Fri 06:18:39 AM 42.8842 -73.9531 315° West 280 322 7,200 3,000 Climbing Boston Center
Fri 06:19:39 AM 42.9144 -74.0333 297° West 270 311 10,100 2,950 Climbing Boston Center
Fri 06:20:00 AM 42.3514 -74.3558 180° South  Level Estimated
Fri 06:20:39 AM 42.9378 -74.1475 286° West 280 322 13,100  Level Boston Center
Fri 06:21:00 AM 42.2716 -74.4657 180° South  Level Estimated
Fri 06:21:39 AM 42.9592 -74.2444 287° West 293 337 15,600  Level Boston Center
Fri 06:22:39 AM 42.9531 -74.3664 266° West 293 337 18,100 1,700 Climbing Boston Center
Fri 06:23:39 AM 42.9017 -74.4469 229° Southwest 314 361 19,000 450 Climbing Boston Center
Fri 06:24:39 AM 42.7956 -74.4378 176° South 294 338 19,000  Level Boston Center
Fri 06:25:39 AM 42.6911 -74.3297 143° Southeast 377 434 19,000 800 Level Boston Center
Fri 06:26:39 AM 42.5733 -74.2558 155° Southeast 403 464 20,600 1,650 Climbing Boston Center
Fri 06:27:39 AM 42.4600 -74.1822 154° Southeast 432 497 22,300 1,700 Climbing Boston Center
Fri 06:28:39 AM 42.3425 -74.1031 154° Southeast 452 520 24,000 1,550 Climbing Boston Center
Fri 06:29:39 AM 42.2181 -74.0436 161° South 464 534 25,400 1,600 Climbing Boston Center
Fri 06:30:39 AM 42.0847 -74.0458 181° South 471 542 27,200 1,650 Climbing Boston Center
Fri 06:31:39 AM 41.9533 -74.0536 183° South 471 542 28,700 1,400 Climbing Boston Center
Fri 06:32:39 AM 41.8197 -74.0614 182° South 476 548 30,000 1,078 Climbing Boston Center
Fri 06:35:05 AM 41.5194 -74.1458 192° South 455 524 32,400 1,038 Climbing New York Center
Fri 06:36:07 AM 41.4269 -74.2517 221° Southwest 445 512 33,600 800 Climbing New York Center
Fri 06:37:05 AM 41.3319 -74.3575 220° Southwest 445 512 34,000 202 Climbing New York Center
Fri 06:38:06 AM 41.2353 -74.4569 218° Southwest 445 512 34,000  Level New York Center
Fri 06:39:06 AM 41.1425 -74.5622 221° Southwest 445 512 34,000 -51 Level New York Center
Fri 06:40:04 AM 41.0514 -74.6672 221° Southwest 439 505 33,900  Descending New York Center
Fri 06:42:05 AM 40.8656 -74.8650 219° Southwest 439 505 34,000 33 Climbing New York Center
Fri 06:43:06 AM 40.7725 -74.9636 219° Southwest 439 505 34,000  Level New York Center
Fri 06:44:07 AM 40.6836 -75.0647 221° Southwest 439 505 34,000  Level New York Center
Fri 06:45:05 AM 40.5922 -75.1656 220° Southwest 434 499 34,000  Level New York Center
Fri 06:46:06 AM 40.4989 -75.2633 219° Southwest 434 499 34,000  Level New York Center
Fri 06:47:07 AM 40.4097 -75.3611 220° Southwest 434 499 34,000  Level New York Center
Fri 06:48:07 AM 40.3161 -75.4611 219° Southwest 434 499 34,000 -51 Level New York Center
Fri 06:49:05 AM 40.2286 -75.5639 222° Southwest 434 499 33,900  Descending New York Center
Fri 06:50:05 AM 40.1614 -75.6842 234° Southwest 415 478 34,000 50 Climbing New York Center
Fri 06:51:06 AM 40.0997 -75.8075 237° Southwest 415 478 34,000 -45 Level New York Center
Fri 06:52:17 AM 40.0244 -75.9592 237° Southwest 415 478 33,900  Descending New York Center
Fri 06:53:17 AM 39.9628 -76.0819 237° Southwest 420 483 34,000 50 Climbing New York Center
Fri 06:54:18 AM 39.8944 -76.2042 234° Southwest 420 483 34,000  Level New York Center
Fri 06:56:10 AM 39.7878 -76.4231 238° Southwest 425 489 34,000  Level Washington Center
Fri 06:57:11 AM 39.7139 -76.5544 234° Southwest 420 483 34,000  Level Washington Center
Fri 06:58:08 AM 39.6506 -76.6750 236° Southwest 415 478 34,000  Level Washington Center
Fri 06:59:10 AM 39.5889 -76.7953 236° Southwest 415 478 34,000  Level Washington Center
Fri 07:00:10 AM 39.5250 -76.9178 236° Southwest 415 478 34,000  Level Washington Center
Fri 07:01:08 AM 39.4508 -77.0267 229° Southwest 415 478 34,000  Level Washington Center
Fri 07:02:09 AM 39.3622 -77.1164 218° Southwest 415 478 34,000  Level Washington Center
Fri 07:03:10 AM 39.2714 -77.2108 219° Southwest 415 478 34,000  Level Washington Center
Fri 07:04:10 AM 39.1847 -77.3053 220° Southwest 415 478 34,000  Level Washington Center
Fri 07:05:11 AM 39.0958 -77.3969 219° Southwest 415 478 34,000  Level Washington Center
Fri 07:06:11 AM 39.0089 -77.4856 218° Southwest 415 478 34,000  Level Washington Center
Fri 07:07:11 AM 38.9283 -77.5717 220° Southwest 415 478 34,000  Level Washington Center
Fri 07:08:09 AM 38.8308 -77.6728 219° Southwest 415 478 34,000  Level Washington Center
Fri 07:09:09 AM 38.7417 -77.7583 217° Southwest 420 483 34,000  Level Washington Center
Fri 07:10:10 AM 38.6586 -77.8489 220° Southwest 420 483 34,000  Level Washington Center
Fri 07:11:10 AM 38.5878 -77.9556 230° Southwest 408 470 34,000  Level Washington Center
Fri 07:12:11 AM 38.5189 -78.0728 233° Southwest 408 470 34,000  Level Washington Center
Fri 07:13:09 AM 38.4494 -78.1925 233° Southwest 413 475 34,000  Level Washington Center
Fri 07:14:11 AM 38.3803 -78.3092 233° Southwest 418 481 34,000  Level Washington Center
Fri 07:15:08 AM 38.3086 -78.4283 233° Southwest 423 487 34,000  Level Washington Center
Fri 07:16:09 AM 38.2367 -78.5550 234° Southwest 415 478 34,000  Level Washington Center
Fri 07:17:10 AM 38.1672 -78.6711 233° Southwest 415 478 34,000  Level Washington Center
Fri 07:18:10 AM 38.0972 -78.7897 233° Southwest 421 484 34,000  Level Washington Center
Fri 07:19:11 AM 38.0342 -78.8925 232° Southwest 421 484 34,000  Level Washington Center
Fri 07:20:10 AM 37.9639 -79.0106 233° Southwest 421 484 34,000  Level Washington Center
Fri 07:21:11 AM 37.8897 -79.1283 231° Southwest 427 491 34,000  Level Washington Center
Fri 07:22:09 AM 37.8047 -79.2453 227° Southwest 427 491 34,000  Level Washington Center
Fri 07:23:09 AM 37.7242 -79.3567 228° Southwest 427 491 34,000  Level Washington Center
Fri 07:24:09 AM 37.6456 -79.4631 227° Southwest 433 498 34,000  Level Washington Center
Fri 07:25:09 AM 37.5736 -79.5617 227° Southwest 424 488 34,000  Level Washington Center
Fri 07:26:10 AM 37.4861 -79.6828 228° Southwest 424 488 34,000  Level Washington Center
Fri 07:28:10 AM 37.3231 -79.9050 227° Southwest 432 497 34,000  Level Atlanta Center
Fri 07:29:10 AM 37.2453 -80.0083 227° Southwest 427 491 34,000  Level Atlanta Center
Fri 07:30:10 AM 37.1733 -80.1058 227° Southwest 427 491 34,000  Level Atlanta Center
Fri 07:31:10 AM 37.0953 -80.2086 226° Southwest 421 484 34,000  Level Atlanta Center
Fri 07:32:10 AM 37.0172 -80.3111 226° Southwest 416 479 34,000  Level Atlanta Center
Fri 07:33:10 AM 36.9331 -80.4267 228° Southwest 411 473 34,000  Level Atlanta Center
Fri 07:34:10 AM 36.8528 -80.5317 226° Southwest 406 467 34,000  Level Atlanta Center
Fri 07:35:10 AM 36.7764 -80.6361 228° Southwest 411 473 34,000  Level Atlanta Center
Fri 07:36:10 AM 36.7103 -80.7319 229° Southwest 405 466 34,000  Level Atlanta Center
Fri 07:37:10 AM 36.6317 -80.8311 225° Southwest 405 466 34,000  Level Atlanta Center
Fri 07:38:10 AM 36.5469 -80.9456 227° Southwest 405 466 34,000  Level Atlanta Center
Fri 07:39:10 AM 36.4661 -81.0494 226° Southwest 405 466 34,000 -650 Level Atlanta Center
Fri 07:40:10 AM 36.3894 -81.1528 227° Southwest 405 466 32,700 -1,250 Descending Atlanta Center
Fri 07:41:10 AM 36.3106 -81.2586 227° Southwest 415 478 31,500 -1,250 Descending Atlanta Center
Fri 07:42:10 AM 36.2294 -81.3644 226° Southwest 421 484 30,200 -750 Descending Atlanta Center
Fri 07:43:10 AM 36.1481 -81.4700 226° Southwest 426 490 30,000 -100 Descending Atlanta Center
Fri 07:44:10 AM 36.0669 -81.5753 226° Southwest 431 496 30,000  Level Atlanta Center
Fri 07:45:10 AM 35.9875 -81.6803 227° Southwest 431 496 30,000  Level Atlanta Center
Fri 07:46:10 AM 35.9022 -81.7906 226° Southwest 431 496 30,000  Level Atlanta Center
Fri 07:47:10 AM 35.8206 -81.8953 226° Southwest 431 496 30,000  Level Atlanta Center
Fri 07:48:10 AM 35.7389 -81.9972 225° Southwest 431 496 30,000  Level Atlanta Center
Fri 07:49:10 AM 35.6572 -82.1039 227° Southwest 431 496 30,000  Level Atlanta Center
Fri 07:50:10 AM 35.5753 -82.2081 226° Southwest 431 496 30,000 -550 Level Atlanta Center
Fri 07:51:10 AM 35.4892 -82.3069 223° Southwest 431 496 28,900 -800 Descending Atlanta Center
Fri 07:52:10 AM 35.4089 -82.3925 221° Southwest 431 496 28,400 -500 Descending Atlanta Center
Fri 07:53:10 AM 35.3267 -82.4883 224° Southwest 421 484 27,900 -450 Descending Atlanta Center
Fri 07:54:10 AM 35.2319 -82.5919 222° Southwest 412 474 27,500 -450 Descending Atlanta Center
Fri 07:55:10 AM 35.1619 -82.6694 222° Southwest 406 467 27,000 -250 Descending Atlanta Center
Fri 07:56:10 AM 35.0733 -82.7647 221° Southwest 395 455 27,000  Level Atlanta Center
Fri 07:57:10 AM 34.9947 -82.8547 223° Southwest 395 455 27,000 -300 Level Atlanta Center
Fri 07:58:10 AM 34.9225 -82.9317 221° Southwest 390 449 26,400 -950 Descending Atlanta Center
Fri 07:59:10 AM 34.8481 -83.0189 224° Southwest 382 440 25,100 -1,200 Descending Atlanta Center
Fri 08:00:10 AM 34.7611 -83.1083 220° Southwest 382 440 24,000 -550 Descending Atlanta Center
Fri 08:01:10 AM 34.6783 -83.2028 223° Southwest 393 452 24,000  Level Atlanta Center
Fri 08:02:10 AM 34.5933 -83.2969 222° Southwest 413 475 24,000 -650 Level Atlanta Center
Fri 08:03:10 AM 34.5042 -83.3883 220° Southwest 418 481 22,700 -1,650 Descending Atlanta Center
Fri 08:04:10 AM 34.4253 -83.4822 224° Southwest 404 465 20,700 -2,150 Descending Atlanta Center
Fri 08:05:10 AM 34.3486 -83.5633 221° Southwest 386 444 18,400 -2,400 Descending Atlanta Center
Fri 08:06:10 AM 34.2758 -83.6442 223° Southwest 370 426 15,900 -2,550 Descending Atlanta Center
Fri 08:07:10 AM 34.2031 -83.7222 222° Southwest 359 413 13,300 -2,000 Descending Atlanta Center
Fri 08:08:10 AM 34.1322 -83.7978 221° Southwest 348 400 11,900 -650 Descending Atlanta Center
Fri 08:09:10 AM 34.0781 -83.8558 222° Southwest 322 371 12,000 -296 Climbing Atlanta Center
Fri 08:09:31 AM 34.0500 -83.8833 219° Southwest 273 314 11,500 -1,704 Descending Atlanta TRACON
Fri 08:10:31 AM 33.9833 -83.9333 212° Southwest 280 322 9,700 -1,389 Descending Atlanta TRACON
Fri 08:11:19 AM 33.9333 -83.9333 180° South 275 316 9,000 -424 Descending Atlanta TRACON
Fri 08:12:10 AM 33.8694 -83.9436 188° South 268 308 9,000  Level Atlanta Center
Fri 08:13:10 AM 33.7983 -83.9564 188° South 273 314 9,000 -600 Level Atlanta Center
Fri 08:14:10 AM 33.7294 -83.9689 189° South 249 287 7,800 -1,000 Descending Atlanta Center
Fri 08:15:10 AM 33.6711 -83.9764 186° South 226 260 7,000 -400 Descending Atlanta Center
Fri 08:16:10 AM 33.6397 -84.0314 236° Southwest 187 215 7,000 -678 Level Atlanta Center
Fri 08:18:07 AM 33.6333 -84.1500 266° West 191 220 5,000 -982 Descending Atlanta TRACON
Fri 08:19:01 AM 33.6333 -84.2167 270° West 186 214 4,200 -895 Descending Atlanta TRACON
Fri 08:20:01 AM 33.6333 -84.2667 270° West 187 215 3,300 -900 Descending Atlanta TRACON

Login

Don't have an account? Register now (free) for customized features, flight alerts, and more!